PUC weather

Carbon County Regional/Buck Davis Field
Price, Utah, United States

Public forecast

Using degrees Fahrenheit for public forecast. Weather courtesy of forecast.io.

METAR (pilot weather report)

Retrieved 2019/05/19 17:53 UTC (10 minutes ago):

KPUC 191753Z AUTO 00000KT 10SM FEW043 BKN055 OVC070 11/00 A2976 RMK AO2 RAB04E13 SLP063 P0000 60000 T01060000 10122 20056 56005

TAF (pilot weather forecast)

Closest forecast is Provo Municipal Airport, 57.7 nm (106.8 km) NW. Retrieved 2019/05/19 18:27 UTC (0 seconds ago):

TAF KPVU 191725Z 1918/2018 15010G18KT P6SM VCSH SCT040 BKN080 FM192000 18012G20KT P6SM -SHRA SCT020 BKN040 FM200400 15007KT P6SM VCSH SCT030 BKN060